Time;durP1;ratioP1;P1;durP2;ratioP2;P2;SDS_P1;SDS_P2;PMS_P1;PMS_P2;Temp;Humidity;BMP_temperature;BMP_pressure;BME280_temperature;BME280_humidity;BME280_pressure;Samples;Min_cycle;Max_cycle;Signal;HPM_P1;HPM_P2
2021/07/18 00:00:15;;;;;;;;;;;23.50;52.50;;;;;;8328419;28;20019;-53
2021/07/18 00:04:15;;;;;;;;;;;23.50;52.40;;;;;;8327920;28;19968;-50
2021/07/18 00:08:15;;;;;;;;;;;23.50;52.40;;;;;;8332841;28;19967;-51
2021/07/18 00:12:16;;;;;;;;;;;23.50;52.50;;;;;;8328315;28;19925;-50
2021/07/18 00:16:16;;;;;;;;;;;23.50;52.50;;;;;;8327614;28;19944;-50
2021/07/18 00:20:17;;;;;;;;;;;23.50;52.40;;;;;;8328003;28;19981;-50
2021/07/18 00:24:17;;;;;;;;;;;23.50;52.40;;;;;;8327860;28;19913;-52
2021/07/18 00:28:18;;;;;;;;;;;23.50;52.50;;;;;;8331938;28;20458;-50
2021/07/18 00:32:18;;;;;;;;;;;23.50;52.40;;;;;;8327672;28;19925;-51
2021/07/18 00:36:19;;;;;;;;;;;23.50;52.50;;;;;;8327453;28;19953;-50
2021/07/18 00:40:20;;;;;;;;;;;23.50;52.40;;;;;;8327075;28;19940;-51
2021/07/18 00:44:20;;;;;;;;;;;23.40;52.30;;;;;;8331759;28;20396;-51
2021/07/18 00:48:21;;;;;;;;;;;23.50;52.40;;;;;;8327629;28;20332;-52
2021/07/18 00:52:22;;;;;;;;;;;23.40;52.40;;;;;;8309593;28;19928;-49
2021/07/18 00:56:22;;;;;;;;;;;23.50;52.40;;;;;;8302830;28;19913;-50
2021/07/18 01:00:22;;;;;;;;;;;23.40;52.40;;;;;;8331282;28;20007;-51
2021/07/18 01:04:23;;;;;;;;;;;23.40;52.30;;;;;;8326299;28;19917;-49
2021/07/18 01:08:23;;;;;;;;;;;23.40;52.40;;;;;;8326484;28;19979;-49
2021/07/18 01:12:24;;;;;;;;;;;23.40;52.40;;;;;;8326609;28;20568;-50
2021/07/18 01:16:25;;;;;;;;;;;23.40;52.40;;;;;;8326164;28;20016;-53
2021/07/18 01:20:26;;;;;;;;;;;23.40;52.30;;;;;;8331259;28;19964;-50
2021/07/18 01:24:30;;;;;;;;;;;23.40;52.40;;;;;;8326519;28;19917;-50
2021/07/18 01:28:31;;;;;;;;;;;23.40;52.40;;;;;;8326247;28;19917;-50
2021/07/18 01:32:31;;;;;;;;;;;23.40;52.30;;;;;;8326249;28;19928;-51
2021/07/18 01:36:32;;;;;;;;;;;23.40;52.30;;;;;;8330669;28;20211;-50
2021/07/18 01:40:32;;;;;;;;;;;23.40;52.30;;;;;;8325917;28;19960;-50
2021/07/18 01:44:33;;;;;;;;;;;23.40;52.30;;;;;;8326190;28;20302;-48
2021/07/18 01:48:33;;;;;;;;;;;23.40;52.40;;;;;;8325948;28;19917;-51
2021/07/18 01:52:34;;;;;;;;;;;23.30;52.30;;;;;;8328745;28;19925;-50
2021/07/18 01:56:34;;;;;;;;;;;23.30;52.30;;;;;;8327169;28;19917;-50
2021/07/18 02:00:35;;;;;;;;;;;23.30;52.80;;;;;;8325855;28;19917;-49
2021/07/18 02:04:35;;;;;;;;;;;23.30;52.30;;;;;;8325433;28;19917;-49
2021/07/18 02:08:36;;;;;;;;;;;23.30;52.20;;;;;;8326031;28;19998;-50
2021/07/18 02:12:37;;;;;;;;;;;23.40;52.30;;;;;;8330121;28;19925;-49
2021/07/18 02:16:37;;;;;;;;;;;23.30;52.20;;;;;;8325217;28;19917;-49
2021/07/18 02:20:38;;;;;;;;;;;23.40;52.30;;;;;;8331679;28;19917;-49
2021/07/18 02:24:38;;;;;;;;;;;23.30;52.20;;;;;;8331519;28;19924;-49
2021/07/18 02:28:39;;;;;;;;;;;23.30;52.20;;;;;;8335558;28;19913;-50
2021/07/18 02:32:41;;;;;;;;;;;23.30;52.20;;;;;;8331361;28;19926;-48
2021/07/18 02:36:42;;;;;;;;;;;23.30;52.20;;;;;;8311488;28;20358;-49
2021/07/18 02:40:42;;;;;;;;;;;23.30;52.20;;;;;;8308815;28;20012;-48
2021/07/18 02:44:43;;;;;;;;;;;23.30;52.10;;;;;;8330898;28;19983;-49
2021/07/18 02:48:43;;;;;;;;;;;23.30;52.20;;;;;;8335234;28;20274;-50
2021/07/18 02:52:44;;;;;;;;;;;23.30;52.20;;;;;;8330844;28;19925;-48
2021/07/18 02:56:44;;;;;;;;;;;23.30;52.20;;;;;;8330462;28;19918;-49
2021/07/18 03:00:45;;;;;;;;;;;23.30;52.20;;;;;;8326447;28;19940;-50
2021/07/18 03:04:45;;;;;;;;;;;23.30;52.10;;;;;;8301595;28;20362;-49
2021/07/18 03:08:46;;;;;;;;;;;23.30;52.10;;;;;;8325322;28;20298;-48
2021/07/18 03:12:47;;;;;;;;;;;23.30;52.10;;;;;;8330156;28;19975;-50
2021/07/18 03:16:48;;;;;;;;;;;23.30;52.10;;;;;;8329696;28;19921;-49
2021/07/18 03:20:48;;;;;;;;;;;23.20;52.10;;;;;;8334330;28;19917;-51
2021/07/18 03:24:49;;;;;;;;;;;23.20;52.00;;;;;;8330115;28;19921;-47
2021/07/18 03:28:49;;;;;;;;;;;23.20;52.60;;;;;;8328809;28;19948;-48
2021/07/18 03:32:50;;;;;;;;;;;23.20;52.00;;;;;;8329935;28;19928;-49
2021/07/18 03:36:50;;;;;;;;;;;23.20;52.00;;;;;;8329478;28;19928;-51
2021/07/18 03:40:50;;;;;;;;;;;23.20;52.00;;;;;;8333402;28;19921;-49
2021/07/18 03:44:51;;;;;;;;;;;23.20;52.00;;;;;;8329282;28;19924;-48
2021/07/18 03:48:51;;;;;;;;;;;23.20;52.00;;;;;;8328988;28;19917;-52
2021/07/18 03:52:53;;;;;;;;;;;23.20;52.00;;;;;;8323659;28;20345;-49
2021/07/18 03:56:53;;;;;;;;;;;23.20;52.00;;;;;;8301042;28;19921;-49
2021/07/18 04:00:54;;;;;;;;;;;23.20;52.00;;;;;;8324658;28;20370;-49
2021/07/18 04:04:54;;;;;;;;;;;23.20;51.90;;;;;;8328108;28;19917;-49
2021/07/18 04:08:55;;;;;;;;;;;23.20;51.90;;;;;;8328340;28;19928;-50
2021/07/18 04:12:57;;;;;;;;;;;23.20;51.90;;;;;;8332799;28;19928;-52
2021/07/18 04:16:57;;;;;;;;;;;23.20;51.90;;;;;;8327942;28;19925;-53
2021/07/18 04:20:58;;;;;;;;;;;23.20;51.80;;;;;;8327573;28;19917;-51
2021/07/18 04:24:58;;;;;;;;;;;23.20;51.80;;;;;;8328034;28;20267;-49
2021/07/18 04:28:59;;;;;;;;;;;23.20;51.80;;;;;;8327164;28;19971;-51
2021/07/18 04:32:59;;;;;;;;;;;23.20;51.80;;;;;;8332323;28;19983;-53
2021/07/18 04:37:00;;;;;;;;;;;23.20;51.80;;;;;;8327493;28;19917;-51
2021/07/18 04:41:00;;;;;;;;;;;23.20;51.80;;;;;;8326482;28;19924;-53
2021/07/18 04:45:01;;;;;;;;;;;23.20;51.80;;;;;;8327156;28;19945;-51
2021/07/18 04:49:01;;;;;;;;;;;23.10;51.70;;;;;;8331775;28;19913;-49
2021/07/18 04:53:02;;;;;;;;;;;23.20;51.70;;;;;;8326610;28;19932;-49
2021/07/18 04:57:03;;;;;;;;;;;23.10;51.70;;;;;;8327190;28;19917;-51
2021/07/18 05:01:03;;;;;;;;;;;23.10;51.70;;;;;;8326962;28;19921;-52
2021/07/18 05:05:04;;;;;;;;;;;23.10;51.70;;;;;;8327326;28;19952;-48
2021/07/18 05:09:04;;;;;;;;;;;23.10;51.70;;;;;;8330421;28;20290;-52
2021/07/18 05:13:05;;;;;;;;;;;23.10;51.60;;;;;;8326541;28;19925;-52
2021/07/18 05:17:06;;;;;;;;;;;23.10;51.70;;;;;;8326153;28;19917;-50
2021/07/18 05:21:06;;;;;;;;;;;23.10;51.60;;;;;;8326367;28;20314;-50
2021/07/18 05:25:07;;;;;;;;;;;23.10;51.60;;;;;;8330922;28;19917;-50
2021/07/18 05:29:08;;;;;;;;;;;23.20;51.60;;;;;;8325976;28;20431;-51
2021/07/18 05:33:08;;;;;;;;;;;23.20;51.60;;;;;;8326226;28;19939;-51
2021/07/18 05:37:09;;;;;;;;;;;23.20;51.50;;;;;;8326730;28;19913;-48
2021/07/18 05:41:10;;;;;;;;;;;23.20;51.40;;;;;;8330727;28;19928;-48
2021/07/18 05:45:11;;;;;;;;;;;23.30;51.40;;;;;;8326052;28;19921;-51
2021/07/18 05:49:11;;;;;;;;;;;23.30;51.40;;;;;;8325752;28;19975;-48
2021/07/18 05:53:12;;;;;;;;;;;23.30;51.30;;;;;;8330066;28;20377;-48
2021/07/18 05:57:12;;;;;;;;;;;23.30;51.40;;;;;;8332694;28;19920;-50
2021/07/18 06:01:13;;;;;;;;;;;23.30;51.40;;;;;;8336442;28;19917;-50
2021/07/18 06:05:14;;;;;;;;;;;23.20;51.30;;;;;;8308573;28;19963;-49
2021/07/18 06:09:14;;;;;;;;;;;23.20;51.40;;;;;;8314373;28;19917;-50
2021/07/18 06:13:14;;;;;;;;;;;23.20;51.40;;;;;;8331235;28;19931;-47
2021/07/18 06:17:15;;;;;;;;;;;23.20;51.40;;;;;;8336566;28;19913;-47
2021/07/18 06:21:15;;;;;;;;;;;23.20;51.40;;;;;;8332044;28;20451;-48
2021/07/18 06:25:16;;;;;;;;;;;23.20;51.40;;;;;;8331118;28;19913;-50
2021/07/18 06:29:16;;;;;;;;;;;23.20;51.40;;;;;;8331861;28;20404;-49
2021/07/18 06:33:17;;;;;;;;;;;23.20;51.40;;;;;;8336146;28;19925;-49
2021/07/18 06:37:17;;;;;;;;;;;23.20;51.40;;;;;;8331085;28;19936;-50
2021/07/18 06:41:17;;;;;;;;;;;23.20;51.30;;;;;;8331556;28;19921;-49
2021/07/18 06:45:18;;;;;;;;;;;23.20;51.30;;;;;;8331078;28;19913;-49
2021/07/18 06:49:18;;;;;;;;;;;23.20;51.30;;;;;;8330482;28;19924;-49
2021/07/18 06:53:19;;;;;;;;;;;23.20;51.30;;;;;;8335511;28;19921;-47
2021/07/18 06:57:20;;;;;;;;;;;23.20;51.30;;;;;;8306227;28;19924;-49
2021/07/18 07:01:20;;;;;;;;;;;23.20;51.30;;;;;;8313685;28;19913;-49
2021/07/18 07:05:21;;;;;;;;;;;23.20;51.20;;;;;;8329628;28;19917;-50
2021/07/18 07:09:21;;;;;;;;;;;23.20;51.20;;;;;;8334859;28;19963;-49
2021/07/18 07:13:22;;;;;;;;;;;23.20;51.20;;;;;;8329643;28;19925;-51
2021/07/18 07:17:22;;;;;;;;;;;23.30;51.20;;;;;;8330482;28;19917;-49
2021/07/18 07:21:22;;;;;;;;;;;23.30;51.20;;;;;;8330080;28;19971;-50
2021/07/18 07:25:23;;;;;;;;;;;23.20;51.10;;;;;;8333753;28;19913;-50
2021/07/18 07:29:23;;;;;;;;;;;23.30;51.20;;;;;;8329957;28;20404;-48
2021/07/18 07:33:24;;;;;;;;;;;23.20;51.10;;;;;;8329361;28;20293;-51
2021/07/18 07:37:25;;;;;;;;;;;23.20;51.10;;;;;;8329173;28;20310;-49
2021/07/18 07:41:25;;;;;;;;;;;23.20;51.10;;;;;;8329555;28;20493;-48
2021/07/18 07:45:26;;;;;;;;;;;23.20;51.10;;;;;;8333650;28;19988;-49
2021/07/18 07:49:27;;;;;;;;;;;23.20;51.10;;;;;;8328567;28;19917;-49
2021/07/18 07:53:27;;;;;;;;;;;23.20;51.10;;;;;;8328774;28;20034;-49
2021/07/18 07:57:27;;;;;;;;;;;23.30;51.10;;;;;;8329067;28;19971;-49
2021/07/18 08:01:28;;;;;;;;;;;23.30;51.10;;;;;;8332865;28;19959;-50
2021/07/18 08:05:28;;;;;;;;;;;23.30;51.10;;;;;;8328430;28;19921;-50
2021/07/18 08:09:29;;;;;;;;;;;23.30;51.10;;;;;;8328436;28;19917;-49
2021/07/18 08:13:29;;;;;;;;;;;23.30;51.10;;;;;;8327876;28;20346;-52
2021/07/18 08:17:30;;;;;;;;;;;23.30;51.10;;;;;;8328152;28;20420;-49
2021/07/18 08:21:30;;;;;;;;;;;23.30;51.10;;;;;;8331637;28;19917;-50
2021/07/18 08:25:31;;;;;;;;;;;23.30;51.00;;;;;;8327687;28;19924;-49
2021/07/18 08:29:31;;;;;;;;;;;23.40;51.10;;;;;;8328082;28;19940;-48
2021/07/18 08:33:32;;;;;;;;;;;23.40;51.10;;;;;;8327656;28;19925;-52
2021/07/18 08:37:33;;;;;;;;;;;23.40;51.00;;;;;;8331787;28;19914;-49
2021/07/18 08:41:33;;;;;;;;;;;23.40;51.00;;;;;;8327516;28;19921;-49
2021/07/18 08:45:34;;;;;;;;;;;23.40;51.00;;;;;;8327672;28;19924;-50
2021/07/18 08:49:35;;;;;;;;;;;23.40;51.00;;;;;;8326676;28;20370;-52
2021/07/18 08:53:36;;;;;;;;;;;23.40;51.00;;;;;;8331723;28;19921;-48
2021/07/18 08:57:37;;;;;;;;;;;23.40;51.00;;;;;;8327246;28;19925;-49
2021/07/18 09:01:42;;;;;;;;;;;23.40;51.00;;;;;;8326700;28;20374;-49
2021/07/18 09:05:43;;;;;;;;;;;23.50;51.00;;;;;;8326812;28;19964;-49
2021/07/18 09:09:45;;;;;;;;;;;23.50;51.00;;;;;;8326823;28;19913;-50
2021/07/18 09:13:54;;;;;;;;;;;23.50;51.00;;;;;;8330792;28;20370;-49
2021/07/18 09:18:06;;;;;;;;;;;23.60;51.00;;;;;;8326878;28;19917;-50
2021/07/18 09:22:06;;;;;;;;;;;23.60;50.90;;;;;;8326578;28;19979;-52
2021/07/18 09:26:27;;;;;;;;;;;23.60;50.90;;;;;;8325376;28;19918;-50
2021/07/18 09:30:32;;;;;;;;;;;23.60;50.90;;;;;;8325729;28;19965;-50
2021/07/18 09:34:34;;;;;;;;;;;23.60;50.90;;;;;;8330602;28;19921;-50
2021/07/18 09:38:34;;;;;;;;;;;23.60;50.90;;;;;;8326290;28;19924;-48
2021/07/18 09:42:38;;;;;;;;;;;23.70;50.90;;;;;;8326189;28;19917;-47
2021/07/18 09:46:38;;;;;;;;;;;23.70;50.90;;;;;;8325906;28;19951;-49
2021/07/18 09:50:40;;;;;;;;;;;23.70;50.90;;;;;;8330544;28;20019;-50
2021/07/18 09:54:40;;;;;;;;;;;23.70;50.80;;;;;;8297352;28;20016;-48
2021/07/18 09:58:51;;;;;;;;;;;23.80;50.90;;;;;;8312830;28;19924;-49
2021/07/18 10:02:52;;;;;;;;;;;23.80;50.80;;;;;;8326173;28;19921;-49
2021/07/18 10:07:04;;;;;;;;;;;23.80;50.90;;;;;;8325595;28;19921;-50
2021/07/18 10:11:06;;;;;;;;;;;23.80;50.80;;;;;;8330311;28;20035;-49
2021/07/18 10:15:06;;;;;;;;;;;23.80;50.80;;;;;;8325549;28;19945;-48
2021/07/18 10:19:07;;;;;;;;;;;23.80;50.80;;;;;;8325620;28;19917;-49
2021/07/18 10:23:07;;;;;;;;;;;23.90;50.80;;;;;;8325174;28;19924;-49
2021/07/18 10:27:08;;;;;;;;;;;23.80;50.80;;;;;;8329931;28;19913;-50
2021/07/18 10:31:15;;;;;;;;;;;23.80;50.70;;;;;;8325615;28;20394;-48
2021/07/18 10:35:18;;;;;;;;;;;23.80;50.70;;;;;;8325365;28;20293;-48
2021/07/18 10:39:35;;;;;;;;;;;23.80;50.70;;;;;;8327443;28;19919;-48
2021/07/18 10:43:36;;;;;;;;;;;23.90;50.80;;;;;;8330519;28;20007;-48
2021/07/18 10:47:54;;;;;;;;;;;23.90;50.70;;;;;;8335871;28;19967;-50
2021/07/18 10:51:54;;;;;;;;;;;23.90;50.70;;;;;;8330875;28;19953;-51
2021/07/18 10:55:55;;;;;;;;;;;23.90;50.70;;;;;;8330170;28;20306;-48
2021/07/18 10:59:57;;;;;;;;;;;23.90;50.70;;;;;;8330487;28;19914;-52
2021/07/18 11:03:58;;;;;;;;;;;24.00;50.60;;;;;;8331699;28;19924;-50
2021/07/18 11:07:58;;;;;;;;;;;24.00;50.60;;;;;;8333209;28;20382;-49
2021/07/18 11:11:58;;;;;;;;;;;24.00;50.50;;;;;;8330440;28;19924;-50
2021/07/18 11:15:59;;;;;;;;;;;24.00;50.50;;;;;;8329292;28;19921;-48
2021/07/18 11:20:01;;;;;;;;;;;24.10;50.60;;;;;;8329624;28;20007;-49
2021/07/18 11:24:01;;;;;;;;;;;24.10;50.50;;;;;;8334466;28;19917;-49
2021/07/18 11:28:02;;;;;;;;;;;24.10;50.50;;;;;;8329878;28;19917;-49
2021/07/18 11:32:18;;;;;;;;;;;24.10;50.50;;;;;;8329282;28;19917;-48
2021/07/18 11:36:20;;;;;;;;;;;24.10;50.50;;;;;;8329861;28;19925;-49
2021/07/18 11:40:26;;;;;;;;;;;24.10;50.50;;;;;;8329972;28;19913;-50
2021/07/18 11:44:27;;;;;;;;;;;24.10;50.40;;;;;;8333853;28;19913;-48
2021/07/18 11:48:28;;;;;;;;;;;24.10;50.40;;;;;;8329171;28;19917;-51
2021/07/18 11:52:28;;;;;;;;;;;24.10;50.90;;;;;;8328281;28;19961;-52
2021/07/18 11:56:29;;;;;;;;;;;24.10;50.30;;;;;;8329423;28;19992;-53
2021/07/18 12:00:29;;;;;;;;;;;24.20;50.40;;;;;;8333238;28;19948;-52
2021/07/18 12:04:29;;;;;;;;;;;24.20;50.40;;;;;;8301096;28;19926;-49
2021/07/18 12:08:33;;;;;;;;;;;24.20;50.40;;;;;;8313825;28;20319;-49
2021/07/18 12:12:33;;;;;;;;;;;24.30;50.40;;;;;;8328499;28;19921;-48
2021/07/18 12:16:34;;;;;;;;;;;24.30;50.40;;;;;;8332538;28;19913;-49
2021/07/18 12:20:35;;;;;;;;;;;24.30;50.30;;;;;;8328043;28;19917;-49
2021/07/18 12:24:38;;;;;;;;;;;24.30;50.20;;;;;;8328248;28;19921;-49
2021/07/18 12:28:38;;;;;;;;;;;24.40;50.20;;;;;;8327282;28;19917;-49
2021/07/18 12:32:39;;;;;;;;;;;24.30;50.10;;;;;;8325458;28;19936;-52
2021/07/18 12:36:55;;;;;;;;;;;24.40;50.10;;;;;;8299503;28;19917;-51
2021/07/18 12:40:59;;;;;;;;;;;24.40;50.00;;;;;;8322418;28;19928;-50
2021/07/18 12:45:29;;;;;;;;;;;24.50;50.10;;;;;;8327397;28;20007;-49
2021/07/18 12:49:29;;;;;;;;;;;24.40;50.00;;;;;;8309200;28;19913;-48
2021/07/18 12:53:30;;;;;;;;;;;24.50;49.10;;;;;;8326955;28;19925;-48
2021/07/18 12:57:30;;;;;;;;;;;24.60;49.40;;;;;;8331655;28;19917;-48
2021/07/18 13:01:32;;;;;;;;;;;24.60;49.60;;;;;;8324311;28;19924;-48
2021/07/18 13:05:33;;;;;;;;;;;24.60;49.60;;;;;;8323092;28;19925;-47
2021/07/18 13:09:33;;;;;;;;;;;24.60;49.60;;;;;;8323440;28;20066;-48
2021/07/18 13:13:34;;;;;;;;;;;24.60;49.70;;;;;;8327515;28;20298;-47
2021/07/18 13:17:47;;;;;;;;;;;24.50;49.60;;;;;;8325472;28;19917;-49
2021/07/18 13:22:03;;;;;;;;;;;24.60;49.70;;;;;;8305180;28;19922;-49
2021/07/18 13:26:04;;;;;;;;;;;24.60;49.70;;;;;;8307648;28;20008;-50
2021/07/18 13:30:06;;;;;;;;;;;24.60;49.70;;;;;;8326637;28;20293;-47
2021/07/18 13:34:07;;;;;;;;;;;24.60;49.70;;;;;;8330696;28;19928;-50
2021/07/18 13:38:07;;;;;;;;;;;24.60;49.70;;;;;;8325798;28;20370;-51
2021/07/18 13:42:09;;;;;;;;;;;24.60;49.70;;;;;;8326427;28;19956;-49
2021/07/18 13:46:10;;;;;;;;;;;24.60;49.70;;;;;;8326283;28;19917;-49
2021/07/18 13:50:10;;;;;;;;;;;24.60;49.60;;;;;;8330580;28;20366;-48
2021/07/18 13:54:11;;;;;;;;;;;24.60;49.60;;;;;;8325229;28;19944;-48
2021/07/18 13:58:11;;;;;;;;;;;24.70;49.70;;;;;;8326340;28;19921;-50
2021/07/18 14:02:12;;;;;;;;;;;24.70;49.60;;;;;;8324742;28;19921;-48
2021/07/18 14:06:12;;;;;;;;;;;24.70;49.60;;;;;;8325618;28;19967;-48
2021/07/18 14:10:13;;;;;;;;;;;24.70;49.60;;;;;;8329940;28;20385;-49
2021/07/18 14:14:14;;;;;;;;;;;24.70;49.50;;;;;;8305035;28;19926;-48
2021/07/18 14:18:14;;;;;;;;;;;24.70;49.60;;;;;;8314983;28;19920;-48
2021/07/18 14:22:15;;;;;;;;;;;24.70;49.50;;;;;;8331178;28;19917;-48
2021/07/18 14:26:15;;;;;;;;;;;24.80;49.50;;;;;;8336105;28;19913;-49
2021/07/18 14:30:16;;;;;;;;;;;24.80;49.50;;;;;;8331538;28;19923;-47
2021/07/18 14:34:17;;;;;;;;;;;24.80;49.50;;;;;;8331192;28;20016;-47
2021/07/18 14:38:17;;;;;;;;;;;24.80;49.40;;;;;;8322470;28;19917;-48
2021/07/18 14:42:18;;;;;;;;;;;24.80;49.40;;;;;;8302020;28;20402;-49
2021/07/18 14:46:19;;;;;;;;;;;24.80;49.40;;;;;;8332150;28;19924;-50
2021/07/18 14:50:20;;;;;;;;;;;24.80;49.30;;;;;;8331246;28;19979;-49
2021/07/18 14:54:21;;;;;;;;;;;24.80;49.40;;;;;;8330767;28;20367;-52
2021/07/18 14:58:21;;;;;;;;;;;24.80;49.40;;;;;;8330340;28;20014;-47
2021/07/18 15:02:21;;;;;;;;;;;24.80;49.40;;;;;;8335043;28;19948;-48
2021/07/18 15:06:22;;;;;;;;;;;24.80;49.30;;;;;;8330224;28;19925;-49
2021/07/18 15:10:24;;;;;;;;;;;24.90;49.30;;;;;;8329971;28;19917;-48
2021/07/18 15:14:25;;;;;;;;;;;24.90;49.20;;;;;;8330332;28;19929;-48
2021/07/18 15:18:25;;;;;;;;;;;24.90;49.60;;;;;;8334590;28;20370;-49
2021/07/18 15:22:27;;;;;;;;;;;24.90;49.20;;;;;;8329696;28;19943;-49
2021/07/18 15:26:27;;;;;;;;;;;24.90;49.20;;;;;;8329639;28;19963;-48
2021/07/18 15:30:27;;;;;;;;;;;24.90;45.40;;;;;;8329782;28;19921;-47
2021/07/18 15:34:28;;;;;;;;;;;25.00;48.20;;;;;;8329208;28;20282;-50
2021/07/18 15:38:29;;;;;;;;;;;25.00;46.30;;;;;;8334244;28;20363;-49
2021/07/18 15:42:29;;;;;;;;;;;25.10;46.60;;;;;;8329306;28;20090;-50
2021/07/18 15:46:31;;;;;;;;;;;25.10;45.80;;;;;;8315259;28;20313;-46
2021/07/18 15:50:31;;;;;;;;;;;25.10;44.30;;;;;;8301323;28;19918;-47
2021/07/18 15:54:32;;;;;;;;;;;25.10;44.70;;;;;;8333370;28;20005;-49
2021/07/18 15:58:32;;;;;;;;;;;25.20;45.60;;;;;;8301281;28;20252;-46
2021/07/18 16:02:34;;;;;;;;;;;25.20;45.00;;;;;;8314716;28;19923;-48
2021/07/18 16:06:34;;;;;;;;;;;25.20;44.10;;;;;;8328280;28;20410;-47
2021/07/18 16:10:35;;;;;;;;;;;25.20;44.80;;;;;;8332731;28;19913;-46
2021/07/18 16:14:35;;;;;;;;;;;25.20;44.60;;;;;;8302978;28;19934;-47
2021/07/18 16:18:36;;;;;;;;;;;25.20;44.90;;;;;;8318553;28;19963;-46
2021/07/18 16:22:36;;;;;;;;;;;25.20;44.50;;;;;;8312187;28;19959;-48
2021/07/18 16:26:37;;;;;;;;;;;25.20;45.00;;;;;;8323009;28;19917;-46
2021/07/18 16:30:37;;;;;;;;;;;25.20;44.90;;;;;;8326668;28;19925;-46
2021/07/18 16:34:38;;;;;;;;;;;25.20;44.50;;;;;;8311348;28;20327;-45
2021/07/18 16:38:38;;;;;;;;;;;25.20;44.10;;;;;;8310370;28;19971;-51
2021/07/18 16:42:39;;;;;;;;;;;25.20;43.70;;;;;;8313325;28;19924;-51
2021/07/18 16:46:39;;;;;;;;;;;25.20;44.30;;;;;;8328058;28;20252;-50
2021/07/18 16:50:40;;;;;;;;;;;25.20;44.90;;;;;;8327263;28;19917;-51
2021/07/18 16:54:40;;;;;;;;;;;25.20;45.30;;;;;;8326831;28;20433;-52
2021/07/18 16:58:41;;;;;;;;;;;25.20;46.20;;;;;;8326586;28;19917;-49
2021/07/18 17:02:41;;;;;;;;;;;25.20;45.80;;;;;;8331574;28;20391;-48
2021/07/18 17:06:42;;;;;;;;;;;25.10;46.00;;;;;;8326693;28;19956;-48
2021/07/18 17:10:43;;;;;;;;;;;25.10;46.00;;;;;;8326239;28;20340;-48
2021/07/18 17:14:46;;;;;;;;;;;25.20;46.10;;;;;;8326518;28;19936;-50
2021/07/18 17:18:47;;;;;;;;;;;25.10;46.10;;;;;;8326806;28;19932;-47
2021/07/18 17:22:47;;;;;;;;;;;25.10;46.30;;;;;;8330939;28;19913;-48
2021/07/18 17:26:48;;;;;;;;;;;25.10;46.40;;;;;;8326896;28;19924;-48
2021/07/18 17:30:48;;;;;;;;;;;25.10;46.40;;;;;;8326590;28;19917;-47
2021/07/18 17:34:49;;;;;;;;;;;25.10;46.50;;;;;;8325769;28;19936;-48
2021/07/18 17:38:49;;;;;;;;;;;25.10;46.60;;;;;;8330988;28;19924;-49
2021/07/18 17:42:50;;;;;;;;;;;25.10;46.60;;;;;;8297001;28;19968;-48
2021/07/18 17:46:51;;;;;;;;;;;25.10;46.60;;;;;;8313495;28;19939;-48
2021/07/18 17:50:52;;;;;;;;;;;25.10;46.50;;;;;;8332549;28;20302;-48
2021/07/18 17:54:53;;;;;;;;;;;25.10;46.70;;;;;;8332775;28;19925;-48
2021/07/18 17:58:54;;;;;;;;;;;25.00;46.70;;;;;;8336809;28;19913;-48
2021/07/18 18:02:57;;;;;;;;;;;25.00;46.70;;;;;;8332615;28;19923;-48
2021/07/18 18:06:58;;;;;;;;;;;25.10;46.70;;;;;;8332872;28;19921;-48
2021/07/18 18:11:02;;;;;;;;;;;25.10;47.30;;;;;;8331708;28;19917;-48
2021/07/18 18:15:03;;;;;;;;;;;25.00;46.70;;;;;;8336502;28;19925;-51
2021/07/18 18:19:05;;;;;;;;;;;25.00;46.80;;;;;;8332121;28;20010;-50
2021/07/18 18:23:06;;;;;;;;;;;25.10;46.90;;;;;;8331731;28;19917;-48
2021/07/18 18:27:06;;;;;;;;;;;25.00;46.90;;;;;;8331837;28;19924;-47
2021/07/18 18:31:07;;;;;;;;;;;25.00;46.90;;;;;;8336084;28;19913;-50
2021/07/18 18:35:08;;;;;;;;;;;25.00;46.90;;;;;;8298829;28;20383;-49
2021/07/18 18:39:09;;;;;;;;;;;25.00;46.90;;;;;;8321602;28;20387;-48
2021/07/18 18:43:09;;;;;;;;;;;25.00;47.00;;;;;;8331396;28;20007;-48
2021/07/18 18:47:10;;;;;;;;;;;25.00;46.80;;;;;;8330780;28;19960;-48
2021/07/18 18:51:10;;;;;;;;;;;25.00;46.90;;;;;;8335556;28;19979;-52
2021/07/18 18:55:11;;;;;;;;;;;25.00;46.90;;;;;;8329603;28;19929;-49
2021/07/18 18:59:12;;;;;;;;;;;25.00;46.90;;;;;;8329852;28;20292;-48
2021/07/18 19:03:14;;;;;;;;;;;25.00;47.00;;;;;;8330671;28;20007;-49
2021/07/18 19:07:14;;;;;;;;;;;25.00;47.10;;;;;;8334540;28;20369;-49
2021/07/18 19:11:15;;;;;;;;;;;25.00;47.10;;;;;;8330264;28;19963;-47
2021/07/18 19:15:16;;;;;;;;;;;25.00;47.20;;;;;;8330395;28;19933;-48
2021/07/18 19:19:16;;;;;;;;;;;25.00;47.20;;;;;;8329933;28;20080;-47
2021/07/18 19:23:17;;;;;;;;;;;25.00;47.20;;;;;;8330538;28;19920;-48
2021/07/18 19:27:17;;;;;;;;;;;24.90;47.70;;;;;;8334409;28;19913;-49
2021/07/18 19:31:19;;;;;;;;;;;24.90;47.20;;;;;;8329852;28;19917;-47
2021/07/18 19:35:25;;;;;;;;;;;24.90;47.30;;;;;;8329797;28;20394;-50
2021/07/18 19:39:26;;;;;;;;;;;24.90;47.40;;;;;;8329648;28;19925;-49
2021/07/18 19:43:26;;;;;;;;;;;24.90;47.40;;;;;;8333589;28;20367;-52
2021/07/18 19:47:26;;;;;;;;;;;24.90;47.50;;;;;;8329631;28;19924;-48
2021/07/18 19:51:27;;;;;;;;;;;24.90;47.60;;;;;;8311191;28;19925;-51
2021/07/18 19:55:27;;;;;;;;;;;24.90;47.60;;;;;;8304978;28;20012;-48
2021/07/18 19:59:28;;;;;;;;;;;24.90;47.50;;;;;;8333357;28;20369;-49
2021/07/18 20:03:28;;;;;;;;;;;24.80;47.50;;;;;;8328878;28;20347;-49
2021/07/18 20:07:29;;;;;;;;;;;24.90;47.70;;;;;;8328606;28;19967;-49
2021/07/18 20:11:33;;;;;;;;;;;24.90;47.70;;;;;;8328432;28;19952;-47
2021/07/18 20:15:33;;;;;;;;;;;24.80;47.60;;;;;;8328392;28;19978;-51
2021/07/18 20:19:34;;;;;;;;;;;24.80;47.60;;;;;;8332437;28;19913;-47
2021/07/18 20:23:36;;;;;;;;;;;24.80;47.70;;;;;;8327603;28;21301;-49
2021/07/18 20:27:37;;;;;;;;;;;24.80;47.70;;;;;;8328053;28;19913;-48
2021/07/18 20:31:37;;;;;;;;;;;24.80;47.60;;;;;;8327201;28;19917;-49
2021/07/18 20:35:38;;;;;;;;;;;24.80;48.20;;;;;;8332115;28;20361;-49
2021/07/18 20:39:38;;;;;;;;;;;24.80;47.60;;;;;;8327787;28;19917;-47
2021/07/18 20:43:39;;;;;;;;;;;24.80;47.70;;;;;;8326687;28;19917;-48
2021/07/18 20:47:40;;;;;;;;;;;24.80;47.70;;;;;;8327320;28;19913;-47
2021/07/18 20:51:41;;;;;;;;;;;24.80;47.70;;;;;;8328527;28;19917;-47
2021/07/18 20:55:47;;;;;;;;;;;24.80;47.80;;;;;;8331152;28;20309;-48
2021/07/18 20:59:47;;;;;;;;;;;24.80;47.80;;;;;;8329710;28;19917;-47
2021/07/18 21:03:47;;;;;;;;;;;24.80;47.80;;;;;;8327140;28;20297;-47
2021/07/18 21:07:48;;;;;;;;;;;24.80;47.80;;;;;;8326343;28;20358;-48
2021/07/18 21:11:48;;;;;;;;;;;24.80;47.90;;;;;;8331628;28;19914;-48
2021/07/18 21:15:49;;;;;;;;;;;24.80;47.80;;;;;;8326565;28;19937;-48
2021/07/18 21:19:49;;;;;;;;;;;24.80;47.80;;;;;;8326154;28;20297;-48
2021/07/18 21:23:50;;;;;;;;;;;24.70;47.80;;;;;;8325894;28;20286;-49
2021/07/18 21:27:51;;;;;;;;;;;24.80;47.80;;;;;;8331425;28;20351;-47
2021/07/18 21:31:51;;;;;;;;;;;24.80;47.80;;;;;;8326083;28;19917;-48
2021/07/18 21:35:52;;;;;;;;;;;24.70;47.80;;;;;;8325929;28;20408;-50
2021/07/18 21:39:52;;;;;;;;;;;24.70;47.80;;;;;;8326178;28;20359;-47
2021/07/18 21:43:53;;;;;;;;;;;24.70;47.90;;;;;;8325810;28;20274;-51
2021/07/18 21:47:53;;;;;;;;;;;24.70;47.90;;;;;;8330693;28;19917;-48
2021/07/18 21:51:53;;;;;;;;;;;24.70;47.90;;;;;;8326181;28;20004;-48
2021/07/18 21:55:54;;;;;;;;;;;24.70;47.90;;;;;;8325706;28;19972;-51
2021/07/18 21:59:54;;;;;;;;;;;24.70;47.90;;;;;;8321041;28;19920;-48
2021/07/18 22:03:55;;;;;;;;;;;24.70;47.90;;;;;;8297723;28;19917;-49
2021/07/18 22:07:55;;;;;;;;;;;24.70;48.00;;;;;;8321808;28;19928;-48
2021/07/18 22:11:56;;;;;;;;;;;24.70;47.90;;;;;;8325767;28;19917;-48
2021/07/18 22:15:56;;;;;;;;;;;24.70;48.00;;;;;;8325889;28;20436;-48
2021/07/18 22:19:57;;;;;;;;;;;24.70;48.00;;;;;;8329690;28;19921;-48
2021/07/18 22:23:57;;;;;;;;;;;24.60;48.00;;;;;;8325767;28;19924;-48
2021/07/18 22:27:58;;;;;;;;;;;24.60;48.00;;;;;;8304113;28;19914;-50
2021/07/18 22:31:58;;;;;;;;;;;24.60;48.00;;;;;;8305323;28;19956;-47
2021/07/18 22:36:00;;;;;;;;;;;24.60;48.00;;;;;;8330159;28;19921;-48
2021/07/18 22:40:01;;;;;;;;;;;24.60;48.10;;;;;;8335928;28;19921;-49
2021/07/18 22:44:01;;;;;;;;;;;24.60;48.10;;;;;;8330895;28;19979;-50
2021/07/18 22:48:02;;;;;;;;;;;24.60;48.10;;;;;;8330653;28;20389;-48
2021/07/18 22:52:03;;;;;;;;;;;24.60;48.10;;;;;;8330980;28;20270;-49
2021/07/18 22:56:04;;;;;;;;;;;24.60;48.10;;;;;;8334958;28;19925;-51
2021/07/18 23:00:06;;;;;;;;;;;24.60;48.10;;;;;;8330986;28;19917;-49
2021/07/18 23:04:06;;;;;;;;;;;24.60;48.10;;;;;;8331155;28;19913;-47
2021/07/18 23:08:07;;;;;;;;;;;24.60;48.20;;;;;;8330235;28;19928;-48
2021/07/18 23:12:07;;;;;;;;;;;24.60;48.20;;;;;;8330765;28;19913;-49
2021/07/18 23:16:08;;;;;;;;;;;24.50;48.20;;;;;;8335017;28;19931;-49
2021/07/18 23:20:09;;;;;;;;;;;24.50;48.20;;;;;;8329890;28;19975;-49